Time;durP1;ratioP1;P1;durP2;ratioP2;P2;SDS_P1;SDS_P2;PMS_P1;PMS_P2;Temp;Humidity;BMP_temperature;BMP_pressure;BME280_temperature;BME280_humidity;BME280_pressure;Samples;Min_cycle;Max_cycle;Signal;HPM_P1;HPM_P2
2022/05/29 00:01:54;;;;;;;6.10;5.90;;;;;;;14.06;100.00;100444.91;5034298;28;20396;-64
2022/05/29 00:04:20;;;;;;;5.88;5.68;;;;;;;13.95;100.00;100437.47;5031032;28;20029;-64
2022/05/29 00:06:51;;;;;;;6.13;5.93;;;;;;;13.93;100.00;100453.66;5027960;28;20029;-63
2022/05/29 00:09:30;;;;;;;5.78;5.57;;;;;;;13.91;100.00;100447.72;5034215;28;20030;-64
2022/05/29 00:11:58;;;;;;;6.40;6.10;;;;;;;13.89;100.00;100441.75;5033990;28;20459;-64
2022/05/29 00:14:23;;;;;;;6.30;6.00;;;;;;;13.87;100.00;100446.44;5035808;28;20392;-64
2022/05/29 00:16:49;;;;;;;6.20;5.97;;;;;;;13.87;100.00;100457.13;5036798;28;20036;-64
2022/05/29 00:19:14;;;;;;;5.97;5.78;;;;;;;13.90;100.00;100453.25;5020671;28;20033;-65
2022/05/29 00:21:40;;;;;;;5.88;5.68;;;;;;;13.81;100.00;100450.75;5035410;28;20036;-64
2022/05/29 00:24:07;;;;;;;5.80;5.60;;;;;;;13.77;100.00;100444.16;5033518;28;20501;-64
2022/05/29 00:26:33;;;;;;;6.32;6.03;;;;;;;13.66;100.00;100442.06;5033779;28;20032;-63
2022/05/29 00:28:59;;;;;;;6.60;6.30;;;;;;;13.68;100.00;100453.34;5032994;28;20029;-64
2022/05/29 00:31:25;;;;;;;5.85;5.65;;;;;;;13.65;100.00;100452.91;5035868;28;20032;-63
2022/05/29 00:33:50;;;;;;;6.30;6.00;;;;;;;13.60;100.00;100450.03;5042842;28;20024;-63
2022/05/29 00:36:16;;;;;;;6.43;6.13;;;;;;;13.61;100.00;100457.81;5046688;28;20021;-63
2022/05/29 00:38:43;;;;;;;6.40;6.10;;;;;;;13.52;100.00;100451.00;5048211;28;20423;-64
2022/05/29 00:41:34;;;;;;;5.90;5.70;;;;;;;13.53;100.00;100455.31;5033580;28;20045;-63
2022/05/29 00:44:15;;;;;;;6.50;6.20;;;;;;;13.50;100.00;100459.16;5024471;28;20431;-64
2022/05/29 00:46:58;;;;;;;6.13;5.93;;;;;;;13.45;100.00;100463.47;5033605;28;20030;-64
2022/05/29 00:49:35;;;;;;;5.78;5.57;;;;;;;13.41;100.00;100460.34;5016040;28;20088;-63
2022/05/29 00:52:07;;;;;;;5.97;5.78;;;;;;;13.45;100.00;100463.47;5033459;28;20106;-64
2022/05/29 00:54:42;;;;;;;6.00;5.80;;;;;;;13.38;100.00;100465.25;5031733;28;20053;-64
2022/05/29 00:57:24;;;;;;;6.05;5.85;;;;;;;13.41;100.00;100463.00;5033590;28;20374;-64
2022/05/29 00:59:49;;;;;;;6.15;5.90;;;;;;;13.36;100.00;100464.59;5032468;28;20021;-63
2022/05/29 01:02:15;;;;;;;6.10;5.90;;;;;;;13.30;100.00;100468.06;5032776;28;20025;-64
2022/05/29 01:04:44;;;;;;;6.10;5.90;;;;;;;13.26;100.00;100462.28;5031921;28;20037;-63
2022/05/29 01:07:14;;;;;;;5.95;5.75;;;;;;;13.15;100.00;100476.13;5032701;28;20087;-64
2022/05/29 01:09:43;;;;;;;6.07;5.88;;;;;;;13.17;100.00;100480.22;5032924;28;20029;-64
2022/05/29 01:12:39;;;;;;;5.90;5.70;;;;;;;13.02;100.00;100476.81;5031865;28;20061;-64
2022/05/29 01:15:32;;;;;;;5.93;5.72;;;;;;;12.99;100.00;100480.66;5029823;28;20072;-63
2022/05/29 01:18:13;;;;;;;6.22;5.95;;;;;;;12.95;100.00;100484.75;5031272;28;20144;-63
2022/05/29 01:20:49;;;;;;;6.00;5.80;;;;;;;12.78;100.00;100469.22;5031333;28;20040;-64
2022/05/29 01:23:46;;;;;;;6.30;6.00;;;;;;;12.93;100.00;100481.47;5033278;28;20040;-65
2022/05/29 01:26:46;;;;;;;7.00;6.70;;;;;;;12.81;100.00;100480.31;5024950;28;20036;-64
2022/05/29 01:29:18;;;;;;;6.15;5.95;;;;;;;12.80;100.00;100473.34;5029974;28;20014;-64
2022/05/29 01:31:54;;;;;;;6.18;5.93;;;;;;;12.74;100.00;100476.75;5032095;28;20033;-64
2022/05/29 01:34:46;;;;;;;6.40;6.10;;;;;;;12.70;100.00;100467.50;5032257;28;20029;-63
2022/05/29 01:37:27;;;;;;;6.40;6.10;;;;;;;12.62;100.00;100472.94;5031202;28;20033;-63
2022/05/29 01:39:58;;;;;;;6.40;6.10;;;;;;;12.51;100.00;100471.63;5035841;28;20496;-64
2022/05/29 01:42:39;;;;;;;5.82;5.63;;;;;;;12.56;100.00;100474.53;5030678;28;20033;-64
2022/05/29 01:45:12;;;;;;;6.60;6.30;;;;;;;12.53;100.00;100466.09;5029723;28;20405;-64
2022/05/29 01:47:50;;;;;;;6.28;5.97;;;;;;;12.40;100.00;100466.78;5028870;28;20048;-64
2022/05/29 01:50:30;;;;;;;6.28;6.00;;;;;;;12.45;100.00;100470.53;5018771;28;20075;-64
2022/05/29 01:53:12;;;;;;;7.20;6.90;;;;;;;12.40;100.00;100470.25;5031631;28;20080;-63
2022/05/29 01:55:45;;;;;;;6.20;5.95;;;;;;;12.34;100.00;100459.56;5032255;28;20021;-63
2022/05/29 01:58:16;;;;;;;5.82;5.63;;;;;;;12.41;100.00;100468.41;5044206;28;20079;-63
2022/05/29 02:00:45;;;;;;;6.45;6.15;;;;;;;12.33;100.00;100469.34;5031937;28;20366;-63
2022/05/29 02:03:27;;;;;;;6.45;6.15;;;;;;;12.17;100.00;100464.28;5032040;28;20036;-64
2022/05/29 02:06:00;;;;;;;6.40;6.10;;;;;;;12.24;100.00;100473.16;5031751;28;20017;-63
2022/05/29 02:09:10;;;;;;;6.40;6.10;;;;;;;12.31;100.00;100465.25;5030841;28;20033;-63
2022/05/29 02:11:36;;;;;;;6.30;6.00;;;;;;;12.17;100.00;100475.72;4999574;28;20033;-64
2022/05/29 02:14:11;;;;;;;6.32;6.03;;;;;;;12.18;100.00;100476.56;5010443;28;20026;-64
2022/05/29 02:16:44;;;;;;;5.82;5.63;;;;;;;12.07;100.00;100482.38;5020171;28;20033;-64
2022/05/29 02:19:27;;;;;;;6.40;6.10;;;;;;;12.12;100.00;100490.63;5031954;28;20029;-64
2022/05/29 02:22:05;;;;;;;6.05;5.85;;;;;;;12.04;100.00;100478.22;5031799;28;20053;-64
2022/05/29 02:24:37;;;;;;;6.20;5.95;;;;;;;12.03;100.00;100478.41;5029792;28;20021;-63
2022/05/29 02:27:25;;;;;;;6.18;5.95;;;;;;;12.08;100.00;100490.16;5030424;28;20388;-64
2022/05/29 02:29:54;;;;;;;6.30;6.00;;;;;;;11.90;100.00;100487.06;5031588;28;20071;-63
2022/05/29 02:32:25;;;;;;;6.30;6.00;;;;;;;11.99;100.00;100495.75;5032439;28;20346;-64
2022/05/29 02:34:59;;;;;;;6.47;6.18;;;;;;;11.87;100.00;100493.56;5031651;28;20029;-63
2022/05/29 02:37:44;;;;;;;6.38;6.07;;;;;;;11.94;100.00;100490.97;5031499;28;20099;-64
2022/05/29 02:40:33;;;;;;;6.50;6.20;;;;;;;11.96;100.00;100483.63;5033731;28;20431;-63
2022/05/29 02:43:17;;;;;;;6.53;6.22;;;;;;;11.96;100.00;100486.28;5023748;28;20072;-63
2022/05/29 02:46:21;;;;;;;6.35;6.05;;;;;;;11.90;100.00;100487.06;5031319;28;20523;-63
2022/05/29 02:49:05;;;;;;;6.50;6.20;;;;;;;11.92;100.00;100486.88;5026142;28;20106;-64
2022/05/29 02:51:50;;;;;;;5.97;5.78;;;;;;;12.05;100.00;100495.84;5031398;28;20044;-64
2022/05/29 02:54:31;;;;;;;6.18;5.90;;;;;;;12.02;100.00;100493.53;5034576;28;20020;-63
2022/05/29 02:56:59;;;;;;;6.28;5.97;;;;;;;11.97;100.00;100495.94;5018866;28;20030;-63
2022/05/29 02:59:30;;;;;;;5.88;5.68;;;;;;;11.99;100.00;100501.06;5029942;28;20041;-63
2022/05/29 03:02:11;;;;;;;6.00;5.80;;;;;;;11.95;100.00;100495.28;5031349;28;20029;-64
2022/05/29 03:04:46;;;;;;;6.07;5.88;;;;;;;12.02;100.00;100496.19;5031847;28;20022;-63
2022/05/29 03:07:26;;;;;;;6.40;6.10;;;;;;;12.11;100.00;100500.41;5019119;28;20108;-63
2022/05/29 03:09:54;;;;;;;6.40;6.10;;;;;;;12.04;100.00;100504.81;5027092;28;20428;-64
2022/05/29 03:12:52;;;;;;;5.93;5.72;;;;;;;12.11;100.00;100504.91;5031050;28;20025;-63
2022/05/29 03:15:23;;;;;;;6.38;6.07;;;;;;;12.17;100.00;100504.16;5022730;28;20511;-64
2022/05/29 03:17:54;;;;;;;6.38;6.07;;;;;;;12.24;100.00;100514.88;5029766;28;20029;-64
2022/05/29 03:20:51;;;;;;;5.90;5.70;;;;;;;12.31;100.00;100508.63;5035136;28;20025;-64
2022/05/29 03:23:23;;;;;;;6.10;5.90;;;;;;;12.38;100.00;100508.72;5034479;28;20038;-63
2022/05/29 03:25:55;;;;;;;6.20;5.95;;;;;;;12.41;100.00;100501.19;5034879;28;20105;-63
2022/05/29 03:28:40;;;;;;;5.80;5.60;;;;;;;12.50;100.00;100504.56;5033592;28;20036;-62
2022/05/29 03:31:10;;;;;;;5.97;5.78;;;;;;;12.51;100.00;100505.38;5034974;28;20035;-63
2022/05/29 03:33:39;;;;;;;5.90;5.70;;;;;;;12.58;100.00;100503.63;5034738;28;20021;-63
2022/05/29 03:36:09;;;;;;;6.47;6.18;;;;;;;12.58;100.00;100503.63;5028848;28;20104;-64
2022/05/29 03:38:35;;;;;;;5.90;5.70;;;;;;;12.69;100.00;100503.13;5044087;28;20025;-62
2022/05/29 03:41:09;;;;;;;6.10;5.90;;;;;;;12.61;100.00;100489.94;5033255;28;20083;-63
2022/05/29 03:43:34;;;;;;;5.70;5.50;;;;;;;12.77;100.00;100504.81;5026491;28;20059;-64
2022/05/29 03:45:59;;;;;;;5.97;5.78;;;;;;;12.99;100.00;100509.16;5033408;28;20501;-63
2022/05/29 03:48:25;;;;;;;6.50;6.20;;;;;;;12.98;100.00;100503.00;5025942;28;20029;-63
2022/05/29 03:50:50;;;;;;;6.03;5.82;;;;;;;12.99;100.00;100507.31;5034265;28;20033;-64
2022/05/29 03:53:16;;;;;;;6.00;5.80;;;;;;;12.96;100.00;100517.53;5034488;28;20021;-63
2022/05/29 03:55:41;;;;;;;6.30;6.00;;;;;;;12.91;100.00;100511.94;5035328;28;20056;-64
2022/05/29 03:58:07;;;;;;;5.82;5.63;;;;;;;12.87;100.00;100510.69;5022566;28;20032;-63
2022/05/29 04:00:33;;;;;;;5.97;5.78;;;;;;;12.97;100.00;100506.69;5034286;28;20112;-63
2022/05/29 04:02:58;;;;;;;5.90;5.70;;;;;;;13.23;98.63;100507.97;5034184;28;20029;-63
2022/05/29 04:05:24;;;;;;;6.10;5.90;;;;;;;13.49;97.34;100504.66;5034197;28;20083;-63
2022/05/29 04:13:24;;;;;;;5.95;5.75;;;;;;;13.83;95.65;100531.38;5037991;28;19915;-63
2022/05/29 04:15:49;;;;;;;6.43;6.13;;;;;;;13.56;95.10;100526.88;5033436;28;20033;-63
2022/05/29 04:18:17;;;;;;;6.32;6.03;;;;;;;13.71;94.98;100530.25;5033933;28;20018;-63
2022/05/29 04:20:43;;;;;;;6.50;6.20;;;;;;;13.60;95.91;100520.16;5029809;28;20029;-64
2022/05/29 04:23:09;;;;;;;6.10;5.90;;;;;;;13.89;94.69;100536.94;5033709;28;20021;-64
2022/05/29 04:25:34;;;;;;;6.05;5.85;;;;;;;13.84;94.06;100537.53;5034034;28;20079;-63
2022/05/29 04:28:01;;;;;;;6.35;6.05;;;;;;;13.65;95.26;100527.53;5033715;28;20033;-63
2022/05/29 04:30:27;;;;;;;6.10;5.90;;;;;;;13.71;96.59;100543.59;5025913;28;20095;-63
2022/05/29 04:32:59;;;;;;;6.65;6.35;;;;;;;13.61;97.09;100542.28;5033017;28;20059;-64
2022/05/29 04:35:28;;;;;;;6.30;6.00;;;;;;;13.72;97.39;100549.72;5020984;28;20025;-64
2022/05/29 04:37:54;;;;;;;6.60;6.30;;;;;;;13.77;96.06;100561.47;5033145;28;20057;-63
2022/05/29 04:40:19;;;;;;;6.60;6.30;;;;;;;13.97;94.93;100563.47;5028979;28;20135;-65
2022/05/29 04:42:45;;;;;;;6.47;6.18;;;;;;;13.96;94.47;100565.31;5024728;28;20064;-63
2022/05/29 04:45:11;;;;;;;6.40;6.10;;;;;;;13.90;94.08;100567.91;5021093;28;20433;-65
2022/05/29 04:47:37;;;;;;;6.13;5.93;;;;;;;13.96;94.03;100572.47;5042935;28;20060;-64
2022/05/29 04:50:03;;;;;;;6.07;5.88;;;;;;;13.80;94.88;100568.25;5032787;28;20505;-64
2022/05/29 04:52:29;;;;;;;6.60;6.30;;;;;;;13.73;95.03;100568.19;5033575;28;20477;-64
2022/05/29 04:54:54;;;;;;;6.40;6.10;;;;;;;13.97;93.70;100582.94;5033198;28;20032;-64
2022/05/29 04:57:21;;;;;;;6.50;6.20;;;;;;;14.06;92.69;100587.09;5033422;28;20414;-64
2022/05/29 04:59:46;;;;;;;6.60;6.30;;;;;;;13.87;91.45;100573.63;5033151;28;20030;-64
2022/05/29 05:02:12;;;;;;;6.25;6.00;;;;;;;13.90;91.73;100578.59;5032336;28;20397;-64
2022/05/29 05:04:37;;;;;;;6.55;6.25;;;;;;;14.06;91.55;100584.44;5033276;28;20029;-64
2022/05/29 05:07:03;;;;;;;6.30;6.00;;;;;;;14.12;91.31;100587.34;5032301;28;20037;-63
2022/05/29 05:09:30;;;;;;;6.18;5.97;;;;;;;14.03;91.92;100597.34;5019320;28;20534;-63
2022/05/29 05:11:56;;;;;;;6.32;6.03;;;;;;;13.99;91.33;100599.56;5032717;28;20025;-63
2022/05/29 05:14:23;;;;;;;6.35;6.05;;;;;;;13.94;92.12;100610.00;5032811;28;20393;-64
2022/05/29 05:16:49;;;;;;;7.55;7.25;;;;;;;13.87;91.57;100608.28;5032735;28;20120;-63
2022/05/29 05:19:15;;;;;;;6.38;6.07;;;;;;;13.93;91.42;100611.00;5032448;28;20485;-63
2022/05/29 05:21:41;;;;;;;6.03;5.82;;;;;;;14.09;90.89;100616.03;5037019;28;20032;-64
2022/05/29 05:24:07;;;;;;;6.47;6.18;;;;;;;14.10;90.82;100614.19;5032091;28;20428;-63
2022/05/29 05:26:33;;;;;;;6.65;6.35;;;;;;;14.02;89.83;100614.34;5031346;28;20033;-63
2022/05/29 05:28:58;;;;;;;6.00;5.80;;;;;;;14.02;89.37;100609.00;5022699;28;20026;-63
2022/05/29 05:31:25;;;;;;;6.30;6.00;;;;;;;14.15;88.53;100618.94;5029490;28;20033;-64
2022/05/29 05:33:51;;;;;;;6.70;6.40;;;;;;;14.15;88.68;100621.63;5028722;28;20400;-64
2022/05/29 05:36:17;;;;;;;6.13;5.93;;;;;;;14.30;87.63;100615.16;5032451;28;20028;-63
2022/05/29 05:38:42;;;;;;;6.25;6.00;;;;;;;14.43;86.51;100614.41;5027659;28;20033;-63
2022/05/29 05:41:12;;;;;;;6.53;6.22;;;;;;;14.37;86.20;100608.00;5026245;28;20029;-64
2022/05/29 05:43:39;;;;;;;6.35;6.07;;;;;;;14.33;86.53;100605.94;5032346;28;20489;-63
2022/05/29 05:46:10;;;;;;;6.22;6.00;;;;;;;14.72;84.89;100597.31;5028862;28;20459;-64
2022/05/29 05:48:37;;;;;;;6.10;5.90;;;;;;;15.02;86.00;100600.47;5024087;28;20109;-64
2022/05/29 05:51:03;;;;;;;6.30;6.00;;;;;;;15.03;83.64;100596.78;5032190;28;20057;-65
2022/05/29 05:53:28;;;;;;;6.47;6.18;;;;;;;15.29;82.73;100604.03;5032233;28;20031;-65
2022/05/29 05:55:54;;;;;;;6.63;6.32;;;;;;;15.48;81.69;100611.22;5032462;28;20136;-64
2022/05/29 05:58:20;;;;;;;6.38;6.07;;;;;;;15.64;81.89;100606.53;5028759;28;20026;-63
2022/05/29 06:00:47;;;;;;;6.78;6.47;;;;;;;15.52;81.00;100618.88;5021334;28;20093;-64
2022/05/29 06:03:13;;;;;;;6.57;6.28;;;;;;;15.75;79.86;100616.63;5030219;28;20036;-64
2022/05/29 06:05:38;;;;;;;6.60;6.30;;;;;;;16.08;79.57;100624.59;5027874;28;20030;-64
2022/05/29 06:08:04;;;;;;;6.70;6.40;;;;;;;16.12;78.10;100630.38;5030425;28;20112;-63
2022/05/29 06:10:30;;;;;;;6.65;6.35;;;;;;;16.10;78.45;100627.94;5027985;28;20084;-65
2022/05/29 06:13:00;;;;;;;6.78;6.47;;;;;;;16.26;77.95;100630.16;5028924;28;20468;-65
2022/05/29 06:15:27;;;;;;;6.78;6.47;;;;;;;16.45;77.28;100627.63;5030668;28;20017;-63
2022/05/29 06:17:53;;;;;;;7.20;6.90;;;;;;;16.38;76.61;100637.53;5018071;28;20041;-64
2022/05/29 06:20:18;;;;;;;6.72;6.43;;;;;;;16.49;76.30;100634.22;5030299;28;20032;-63
2022/05/29 06:22:44;;;;;;;7.05;6.75;;;;;;;16.55;76.11;100625.34;5031587;28;20134;-64
2022/05/29 06:25:10;;;;;;;6.50;6.20;;;;;;;16.59;75.00;100629.22;5029992;28;20030;-64
2022/05/29 06:27:37;;;;;;;6.47;6.18;;;;;;;17.21;73.53;100624.22;5029577;28;20025;-64
2022/05/29 06:30:03;;;;;;;6.57;6.28;;;;;;;16.96;72.95;100626.81;5030224;28;20033;-63
2022/05/29 06:32:28;;;;;;;6.80;6.50;;;;;;;17.37;71.19;100627.22;5024375;28;20033;-64
2022/05/29 06:34:54;;;;;;;6.70;6.40;;;;;;;17.41;71.04;100619.56;5015960;28;20030;-64
2022/05/29 06:37:19;;;;;;;6.90;6.60;;;;;;;17.34;71.28;100614.25;5024493;28;20097;-64
2022/05/29 06:39:45;;;;;;;6.57;6.28;;;;;;;17.72;69.98;100625.97;5026747;28;20034;-66
2022/05/29 06:42:13;;;;;;;6.80;6.50;;;;;;;17.97;69.16;100626.75;5029891;28;20036;-66
2022/05/29 06:44:40;;;;;;;6.75;6.45;;;;;;;18.11;68.33;100627.47;5030246;28;20469;-65
2022/05/29 06:47:07;;;;;;;6.80;6.50;;;;;;;18.03;67.73;100631.25;5026408;28;20059;-66
2022/05/29 06:49:34;;;;;;;6.80;6.50;;;;;;;18.63;68.11;100628.75;5029540;28;20020;-66
2022/05/29 06:52:00;;;;;;;7.00;6.70;;;;;;;18.77;67.02;100624.06;5026485;28;20041;-66
2022/05/29 06:54:25;;;;;;;6.57;6.28;;;;;;;18.14;67.53;100627.84;5033713;28;20018;-64
2022/05/29 06:56:51;;;;;;;6.80;6.50;;;;;;;18.72;65.27;100630.09;5031334;28;20044;-65
2022/05/29 06:59:17;;;;;;;6.70;6.40;;;;;;;19.22;65.26;100624.47;5032336;28;20108;-66
2022/05/29 07:07:21;;;;;;;6.78;6.47;;;;;;;20.08;62.04;100619.59;5012544;28;20509;-65
2022/05/29 07:09:46;;;;;;;6.90;6.60;;;;;;;20.04;61.63;100626.50;5029394;28;20030;-65
2022/05/29 07:12:19;;;;;;;6.80;6.50;;;;;;;20.42;60.58;100632.22;5030835;28;20484;-65
2022/05/29 07:14:50;;;;;;;7.00;6.70;;;;;;;20.41;59.66;100617.09;5032401;28;20021;-65
2022/05/29 07:17:16;;;;;;;6.90;6.60;;;;;;;20.73;58.21;100629.38;5024480;28;20037;-65
2022/05/29 07:19:42;;;;;;;6.80;6.50;;;;;;;21.36;57.39;100623.81;5035545;28;20033;-64
2022/05/29 07:22:08;;;;;;;6.80;6.50;;;;;;;20.51;58.49;100626.50;5031938;28;20026;-64
2022/05/29 07:24:36;;;;;;;6.88;6.57;;;;;;;21.52;56.33;100635.72;5033567;28;20096;-67
2022/05/29 07:27:02;;;;;;;7.45;7.15;;;;;;;21.18;56.37;100635.63;5026867;28;20021;-75
2022/05/29 07:29:28;;;;;;;7.10;6.80;;;;;;;21.09;56.52;100639.78;5021245;28;20029;-74
2022/05/29 07:31:54;;;;;;;7.35;7.05;;;;;;;21.55;55.81;100642.50;5020421;28;20040;-65
2022/05/29 07:34:20;;;;;;;7.18;6.88;;;;;;;22.05;54.50;100639.81;5022280;28;20085;-65
2022/05/29 07:36:46;;;;;;;6.90;6.60;;;;;;;23.02;51.10;100632.97;5034726;28;20045;-65
2022/05/29 07:39:12;;;;;;;7.20;6.90;;;;;;;22.99;49.32;100634.31;5040177;28;20033;-64
2022/05/29 07:44:22;;;;;;;7.10;6.80;;;;;;;23.52;47.22;100618.31;5022669;28;20547;-66
2022/05/29 07:46:47;;;;;;;7.00;6.70;;;;;;;23.59;47.92;100619.72;5038465;28;20045;-64
2022/05/29 07:49:13;;;;;;;6.90;6.60;;;;;;;24.01;46.46;100607.28;5035155;28;20029;-64
2022/05/29 07:51:39;;;;;;;6.95;6.65;;;;;;;24.48;45.78;100601.91;5040600;28;20033;-64
2022/05/29 07:54:05;;;;;;;6.80;6.50;;;;;;;25.34;42.42;100612.19;5039204;28;20040;-63
2022/05/29 07:56:30;;;;;;;7.00;6.70;;;;;;;26.27;40.63;100619.97;5038974;28;20020;-64
2022/05/29 07:58:56;;;;;;;7.40;7.10;;;;;;;26.10;39.58;100617.56;5044705;28;20120;-62
2022/05/29 08:01:22;;;;;;;7.18;6.88;;;;;;;24.13;43.42;100619.56;5030243;28;20148;-65
2022/05/29 08:03:48;;;;;;;7.00;6.70;;;;;;;23.48;44.92;100614.47;5026389;28;20029;-65
2022/05/29 08:06:14;;;;;;;7.00;6.70;;;;;;;25.78;41.73;100607.03;5040336;28;20053;-65
2022/05/29 08:08:41;;;;;;;7.07;6.78;;;;;;;25.15;41.65;100603.72;5034818;28;20025;-65
2022/05/29 08:11:07;;;;;;;6.90;6.60;;;;;;;26.35;38.92;100604.97;5031570;28;20086;-65
2022/05/29 08:13:35;;;;;;;6.85;6.55;;;;;;;25.24;40.56;100601.28;5022870;28;20018;-64
2022/05/29 08:16:02;;;;;;;7.00;6.70;;;;;;;24.34;42.95;100595.31;5032265;28;20029;-63
2022/05/29 08:18:28;;;;;;;7.00;6.70;;;;;;;25.73;39.89;100598.06;5040981;28;20102;-64
2022/05/29 08:20:53;;;;;;;6.82;6.53;;;;;;;24.93;41.10;100592.25;5033089;28;20029;-63
2022/05/29 08:23:19;;;;;;;6.88;6.57;;;;;;;24.89;42.35;100591.97;5040497;28;20462;-64
2022/05/29 08:31:27;;;;;;;7.07;6.78;;;;;;;26.64;39.14;100592.38;5009342;28;20040;-64
2022/05/29 08:33:53;;;;;;;7.05;6.75;;;;;;;24.59;42.89;100594.59;5027594;28;20021;-64
2022/05/29 08:36:24;;;;;;;6.90;6.60;;;;;;;26.20;39.84;100591.44;5032125;28;20028;-64
2022/05/29 08:38:52;;;;;;;6.90;6.60;;;;;;;26.79;38.39;100588.75;5028177;28;20488;-63
2022/05/29 08:41:54;;;;;;;7.00;6.70;;;;;;;25.76;40.46;100586.63;5030370;28;20025;-64
2022/05/29 08:44:29;;;;;;;6.85;6.55;;;;;;;25.76;40.69;100590.16;5016735;28;20128;-65
2022/05/29 08:47:00;;;;;;;6.85;6.55;;;;;;;26.66;39.76;100590.19;5029005;28;20040;-63
2022/05/29 08:49:30;;;;;;;6.85;6.55;;;;;;;24.77;42.99;100586.81;5030834;28;20031;-64
2022/05/29 08:52:17;;;;;;;7.20;6.90;;;;;;;24.50;43.63;100586.97;5031791;28;20025;-65
2022/05/29 08:55:09;;;;;;;6.85;6.55;;;;;;;25.34;42.01;100588.56;5031633;28;20033;-62
2022/05/29 08:57:55;;;;;;;7.18;6.88;;;;;;;24.34;45.68;100593.41;5032830;28;20132;-61
2022/05/29 09:00:37;;;;;;;7.10;6.80;;;;;;;22.36;51.03;100583.50;5023386;28;20072;-62
2022/05/29 09:03:39;;;;;;;7.32;7.03;;;;;;;21.78;52.41;100578.34;5024490;28;20029;-61
2022/05/29 09:06:13;;;;;;;7.18;6.88;;;;;;;21.32;53.41;100573.31;5023151;28;20041;-61
2022/05/29 09:08:48;;;;;;;7.20;6.90;;;;;;;24.06;46.19;100572.09;5026248;28;20083;-62
2022/05/29 09:11:24;;;;;;;7.30;7.00;;;;;;;23.36;47.02;100572.16;5037468;28;20024;-62
2022/05/29 09:14:05;;;;;;;6.90;6.60;;;;;;;23.84;46.68;100570.34;5023372;28;20032;-61
2022/05/29 09:16:40;;;;;;;6.75;6.45;;;;;;;25.41;43.02;100557.56;5030730;28;20481;-62
2022/05/29 09:19:29;;;;;;;6.95;6.65;;;;;;;24.39;45.42;100557.41;5022327;28;20088;-62
2022/05/29 09:22:01;;;;;;;7.20;6.90;;;;;;;20.78;58.81;100554.78;5016775;28;20569;-62
2022/05/29 09:24:29;;;;;;;7.10;6.80;;;;;;;20.36;60.75;100557.72;5030482;28;20037;-62
2022/05/29 09:26:55;;;;;;;6.85;6.55;;;;;;;20.21;59.62;100551.19;5038172;28;20056;-62
2022/05/29 09:29:21;;;;;;;6.90;6.60;;;;;;;22.36;53.63;100541.06;5032725;28;20493;-62
2022/05/29 09:31:47;;;;;;;6.90;6.60;;;;;;;20.42;60.37;100551.38;5032448;28;20032;-63
2022/05/29 09:34:12;;;;;;;6.90;6.60;;;;;;;20.96;58.91;100556.47;5032516;28;20412;-62
2022/05/29 09:36:56;;;;;;;6.88;6.57;;;;;;;21.05;56.71;100560.41;5032797;28;20029;-62
2022/05/29 09:39:24;;;;;;;6.90;6.60;;;;;;;21.77;54.70;100549.72;5035196;28;20021;-62
2022/05/29 09:42:04;;;;;;;6.82;6.53;;;;;;;21.58;56.24;100555.63;5032483;28;20487;-62
2022/05/29 09:44:31;;;;;;;6.80;6.50;;;;;;;20.37;59.46;100551.28;5030695;28;20045;-62
2022/05/29 09:49:40;;;;;;;7.10;6.80;;;;;;;20.91;57.72;100556.38;5031142;28;20022;-62
2022/05/29 09:49:42;;;;;;;6.85;6.55;;;;;;;21.16;57.22;100556.84;5030965;28;20036;-62
2022/05/29 09:52:16;;;;;;;7.00;6.70;;;;;;;20.46;59.38;100559.81;5030850;28;20468;-62
2022/05/29 09:54:46;;;;;;;;;;;;;;;19.83;61.94;100566.81;5031244;28;20037;-62
2022/05/29 09:57:35;;;;;;;6.80;6.50;;;;;;;20.92;59.56;100564.22;5030860;28;19920;-62
2022/05/29 10:00:12;;;;;;;6.90;6.60;;;;;;;20.38;61.15;100570.94;5030794;28;20033;-62
2022/05/29 10:02:44;;;;;;;6.70;6.40;;;;;;;21.06;58.42;100578.22;5030652;28;20033;-62
2022/05/29 10:05:24;;;;;;;6.72;6.43;;;;;;;20.00;62.99;100582.25;5023796;28;20571;-62
2022/05/29 10:07:52;;;;;;;6.93;6.63;;;;;;;19.44;64.38;100579.03;5030713;28;20063;-62
2022/05/29 10:10:33;;;;;;;6.70;6.40;;;;;;;19.10;65.65;100571.72;5029805;28;20025;-62
2022/05/29 10:12:59;;;;;;;7.00;6.70;;;;;;;20.66;61.90;100562.13;5030472;28;20579;-62
2022/05/29 10:15:25;;;;;;;6.65;6.35;;;;;;;19.71;65.72;100571.38;5030592;28;20033;-62
2022/05/29 10:17:54;;;;;;;6.80;6.50;;;;;;;21.23;59.29;100559.38;5020144;28;20040;-61
2022/05/29 10:20:33;;;;;;;6.90;6.60;;;;;;;20.76;61.14;100561.47;5018128;28;20030;-62
2022/05/29 10:23:31;;;;;;;7.00;6.70;;;;;;;20.13;62.96;100566.69;5029730;28;20076;-61
2022/05/29 10:25:59;;;;;;;6.90;6.60;;;;;;;20.24;62.21;100561.50;5025782;28;20037;-65
2022/05/29 10:28:36;;;;;;;6.70;6.40;;;;;;;20.25;62.63;100563.94;5029535;28;20036;-62
2022/05/29 10:31:08;;;;;;;6.90;6.60;;;;;;;20.19;61.91;100556.81;5030584;28;20396;-61
2022/05/29 10:33:35;;;;;;;7.20;6.90;;;;;;;20.65;60.71;100553.22;5018295;28;20358;-63
2022/05/29 10:36:08;;;;;;;6.50;6.20;;;;;;;20.22;60.45;100558.22;5040118;28;20104;-62
2022/05/29 10:38:34;;;;;;;6.72;6.43;;;;;;;21.10;56.96;100540.81;5030066;28;20030;-62
2022/05/29 10:41:01;;;;;;;6.90;6.60;;;;;;;20.89;59.12;100542.31;5027673;28;20047;-63
2022/05/29 10:43:48;;;;;;;6.88;6.57;;;;;;;20.36;60.73;100549.63;5030112;28;20037;-62
2022/05/29 10:46:24;;;;;;;6.97;6.68;;;;;;;19.94;62.90;100540.94;5029706;28;20051;-63
2022/05/29 10:49:08;;;;;;;6.65;6.35;;;;;;;20.37;60.90;100545.88;5030099;28;20037;-62
2022/05/29 10:51:41;;;;;;;6.70;6.40;;;;;;;19.91;63.67;100549.50;5030466;28;20029;-62
2022/05/29 10:54:09;;;;;;;6.60;6.30;;;;;;;20.24;60.93;100543.44;5022206;28;20030;-61
2022/05/29 10:56:51;;;;;;;6.68;6.38;;;;;;;20.40;60.38;100544.56;5030201;28;20029;-62
2022/05/29 10:59:57;;;;;;;6.88;6.57;;;;;;;19.85;61.86;100550.44;5022940;28;20040;-61
2022/05/29 11:05:32;;;;;;;6.70;6.40;;;;;;;20.56;59.92;100549.25;5029073;28;20507;-62
2022/05/29 11:08:17;;;;;;;6.88;6.57;;;;;;;20.41;59.20;100554.28;5029770;28;20030;-62
2022/05/29 11:10:56;;;;;;;6.95;6.65;;;;;;;21.25;56.42;100562.63;5019853;28;20034;-64
2022/05/29 11:13:46;;;;;;;6.80;6.50;;;;;;;20.24;58.94;100545.34;5027438;28;20102;-64
2022/05/29 11:16:29;;;;;;;6.80;6.50;;;;;;;21.06;56.92;100548.53;5022788;28;20037;-64
2022/05/29 11:19:13;;;;;;;6.70;6.40;;;;;;;21.74;55.60;100538.59;5046542;28;20032;-64
2022/05/29 11:21:54;;;;;;;7.20;6.90;;;;;;;21.24;56.41;100510.56;5022140;28;20040;-63
2022/05/29 11:24:41;;;;;;;7.05;6.75;;;;;;;21.03;56.83;100532.03;5028464;28;20111;-63
2022/05/29 11:27:25;;;;;;;7.18;6.88;;;;;;;20.46;58.99;100514.00;5022850;28;20625;-64
2022/05/29 11:30:06;;;;;;;7.00;6.70;;;;;;;19.86;59.89;100522.44;5028506;28;20040;-63
2022/05/29 11:32:38;;;;;;;7.10;6.80;;;;;;;20.57;58.32;100529.34;5029332;28;20028;-64
2022/05/29 11:35:15;;;;;;;6.90;6.60;;;;;;;20.54;58.21;100519.03;5032179;28;20092;-63
2022/05/29 11:38:08;;;;;;;7.38;7.07;;;;;;;21.04;56.84;100510.22;5028868;28;20026;-64
2022/05/29 11:40:49;;;;;;;6.90;6.60;;;;;;;20.57;56.86;100505.06;5030285;28;20044;-64
2022/05/29 11:43:38;;;;;;;7.20;6.90;;;;;;;20.29;57.77;100513.94;5030688;28;20120;-64
2022/05/29 11:52:06;;;;;;;6.88;6.57;;;;;;;20.03;58.61;100501.00;5016541;28;20507;-64
2022/05/29 11:54:40;;;;;;;7.35;7.05;;;;;;;20.90;57.53;100498.91;5031852;28;20043;-64
2022/05/29 11:57:19;;;;;;;6.90;6.60;;;;;;;20.97;56.69;100507.69;5031720;28;20036;-64
2022/05/29 11:59:44;;;;;;;6.75;6.45;;;;;;;21.44;55.10;100506.56;5030003;28;20037;-64
2022/05/29 12:02:18;;;;;;;6.80;6.50;;;;;;;21.17;55.01;100495.59;5029029;28;20036;-64
2022/05/29 12:04:59;;;;;;;6.65;6.35;;;;;;;21.18;54.80;100489.13;5020524;28;20021;-63
2022/05/29 12:07:35;;;;;;;7.20;6.90;;;;;;;21.69;53.79;100492.63;5032705;28;20139;-65
2022/05/29 12:10:19;;;;;;;6.75;6.45;;;;;;;21.44;54.07;100490.34;5032520;28;20025;-63
2022/05/29 12:12:49;;;;;;;6.80;6.50;;;;;;;21.40;53.67;100494.63;5022863;28;20069;-64
2022/05/29 12:15:20;;;;;;;7.20;6.90;;;;;;;22.15;51.57;100496.75;5033445;28;20033;-64